sensor_id;sensor_type;location;lat;lon;timestamp;temperature;humidity
21518;DHT22;61765;45.794;24.150;2024-01-11T00:00:10;1.00;76.40
21518;DHT22;61765;45.794;24.150;2024-01-11T00:08:15;0.40;76.70
21518;DHT22;61765;45.794;24.150;2024-01-11T00:16:24;0.70;76.70
21518;DHT22;61765;45.794;24.150;2024-01-11T00:24:29;1.00;75.90
21518;DHT22;61765;45.794;24.150;2024-01-11T00:32:43;0.60;77.10
21518;DHT22;61765;45.794;24.150;2024-01-11T00:40:49;0.80;76.70
21518;DHT22;61765;45.794;24.150;2024-01-11T00:48:58;-0.30;79.60
21518;DHT22;61765;45.794;24.150;2024-01-11T00:57:04;-0.20;79.50
21518;DHT22;61765;45.794;24.150;2024-01-11T01:05:13;-0.30;79.70
21518;DHT22;61765;45.794;24.150;2024-01-11T01:13:19;-0.10;79.60
21518;DHT22;61765;45.794;24.150;2024-01-11T01:21:27;0.20;79.60
21518;DHT22;61765;45.794;24.150;2024-01-11T01:29:33;-0.10;80.60
21518;DHT22;61765;45.794;24.150;2024-01-11T01:37:41;0.30;80.10
21518;DHT22;61765;45.794;24.150;2024-01-11T01:45:48;0.10;80.50
21518;DHT22;61765;45.794;24.150;2024-01-11T01:53:57;0.20;80.10
21518;DHT22;61765;45.794;24.150;2024-01-11T02:02:03;0.20;80.50
21518;DHT22;61765;45.794;24.150;2024-01-11T02:10:12;0.50;80.40
21518;DHT22;61765;45.794;24.150;2024-01-11T02:18:18;0.20;79.30
21518;DHT22;61765;45.794;24.150;2024-01-11T02:26:26;0.40;79.70
21518;DHT22;61765;45.794;24.150;2024-01-11T02:34:32;0.10;80.20
21518;DHT22;61765;45.794;24.150;2024-01-11T02:42:41;0.40;79.50
21518;DHT22;61765;45.794;24.150;2024-01-11T02:50:47;0.30;79.10
21518;DHT22;61765;45.794;24.150;2024-01-11T02:58:56;0.50;78.00
21518;DHT22;61765;45.794;24.150;2024-01-11T03:07:02;-0.20;79.20
21518;DHT22;61765;45.794;24.150;2024-01-11T03:15:10;-0.40;79.40
21518;DHT22;61765;45.794;24.150;2024-01-11T03:23:16;-0.70;80.10
21518;DHT22;61765;45.794;24.150;2024-01-11T03:31:25;-0.50;80.10
21518;DHT22;61765;45.794;24.150;2024-01-11T03:39:31;-0.40;80.30
21518;DHT22;61765;45.794;24.150;2024-01-11T03:47:42;-0.10;79.10
21518;DHT22;61765;45.794;24.150;2024-01-11T03:55:48;-0.70;79.00
21518;DHT22;61765;45.794;24.150;2024-01-11T04:03:57;-0.60;79.70
21518;DHT22;61765;45.794;24.150;2024-01-11T04:12:04;-0.70;80.30
21518;DHT22;61765;45.794;24.150;2024-01-11T04:20:13;-0.70;79.60
21518;DHT22;61765;45.794;24.150;2024-01-11T04:28:19;-0.60;80.10
21518;DHT22;61765;45.794;24.150;2024-01-11T04:36:27;-0.70;80.20
21518;DHT22;61765;45.794;24.150;2024-01-11T04:44:33;-1.00;81.20
21518;DHT22;61765;45.794;24.150;2024-01-11T04:52:41;-0.60;80.60
21518;DHT22;61765;45.794;24.150;2024-01-11T05:00:47;-1.60;81.60
21518;DHT22;61765;45.794;24.150;2024-01-11T05:08:55;-1.30;82.40
21518;DHT22;61765;45.794;24.150;2024-01-11T05:17:01;-1.20;81.90
21518;DHT22;61765;45.794;24.150;2024-01-11T05:25:09;-1.30;81.80
21518;DHT22;61765;45.794;24.150;2024-01-11T05:33:15;-1.10;82.10
21518;DHT22;61765;45.794;24.150;2024-01-11T05:41:23;-0.70;82.10
21518;DHT22;61765;45.794;24.150;2024-01-11T05:49:29;-0.90;82.30
21518;DHT22;61765;45.794;24.150;2024-01-11T05:57:38;-0.70;82.10
21518;DHT22;61765;45.794;24.150;2024-01-11T06:05:43;-1.00;82.20
21518;DHT22;61765;45.794;24.150;2024-01-11T06:13:52;-0.90;82.00
21518;DHT22;61765;45.794;24.150;2024-01-11T06:21:58;-0.80;82.30
21518;DHT22;61765;45.794;24.150;2024-01-11T06:30:07;-1.20;82.80
21518;DHT22;61765;45.794;24.150;2024-01-11T06:38:14;-1.20;82.30
21518;DHT22;61765;45.794;24.150;2024-01-11T06:46:23;-1.10;82.20
21518;DHT22;61765;45.794;24.150;2024-01-11T06:54:29;-0.70;81.00
21518;DHT22;61765;45.794;24.150;2024-01-11T07:02:37;-0.40;81.10
21518;DHT22;61765;45.794;24.150;2024-01-11T07:10:43;-0.60;80.50
21518;DHT22;61765;45.794;24.150;2024-01-11T07:19:11;-0.30;80.60
21518;DHT22;61765;45.794;24.150;2024-01-11T07:27:17;0.00;80.40
21518;DHT22;61765;45.794;24.150;2024-01-11T07:35:25;0.90;78.20
21518;DHT22;61765;45.794;24.150;2024-01-11T07:43:31;0.50;78.00
21518;DHT22;61765;45.794;24.150;2024-01-11T07:51:57;0.90;77.50
21518;DHT22;61765;45.794;24.150;2024-01-11T08:00:03;0.70;76.00
21518;DHT22;61765;45.794;24.150;2024-01-11T08:08:18;2.10;76.50
21518;DHT22;61765;45.794;24.150;2024-01-11T08:16:24;2.60;75.20
21518;DHT22;61765;45.794;24.150;2024-01-11T08:24:33;4.00;71.60
21518;DHT22;61765;45.794;24.150;2024-01-11T08:32:40;8.40;61.00
21518;DHT22;61765;45.794;24.150;2024-01-11T08:40:49;9.80;58.00
21518;DHT22;61765;45.794;24.150;2024-01-11T08:48:55;12.80;54.90
21518;DHT22;61765;45.794;24.150;2024-01-11T08:57:04;14.20;51.60
21518;DHT22;61765;45.794;24.150;2024-01-11T09:05:10;14.10;48.90
21518;DHT22;61765;45.794;24.150;2024-01-11T09:13:18;13.80;50.30
21518;DHT22;61765;45.794;24.150;2024-01-11T09:21:24;16.80;46.90
21518;DHT22;61765;45.794;24.150;2024-01-11T09:29:48;19.10;44.20
21518;DHT22;61765;45.794;24.150;2024-01-11T09:38:00;20.00;40.60
21518;DHT22;61765;45.794;24.150;2024-01-11T09:46:10;21.00;39.50
21518;DHT22;61765;45.794;24.150;2024-01-11T09:54:19;23.50;38.40
21518;DHT22;61765;45.794;24.150;2024-01-11T10:02:28;25.30;36.60
21518;DHT22;61765;45.794;24.150;2024-01-11T10:10:34;26.20;34.20
21518;DHT22;61765;45.794;24.150;2024-01-11T10:18:45;26.70;34.20
21518;DHT22;61765;45.794;24.150;2024-01-11T10:26:51;25.40;32.40
21518;DHT22;61765;45.794;24.150;2024-01-11T10:34:59;18.90;36.50
21518;DHT22;61765;45.794;24.150;2024-01-11T10:43:09;13.70;42.30
21518;DHT22;61765;45.794;24.150;2024-01-11T10:51:20;11.20;46.20
21518;DHT22;61765;45.794;24.150;2024-01-11T10:59:28;9.60;50.20
21518;DHT22;61765;45.794;24.150;2024-01-11T11:07:37;9.00;50.90
21518;DHT22;61765;45.794;24.150;2024-01-11T11:15:45;8.20;53.20
21518;DHT22;61765;45.794;24.150;2024-01-11T11:23:55;8.00;54.80
21518;DHT22;61765;45.794;24.150;2024-01-11T11:32:03;7.70;55.60
21518;DHT22;61765;45.794;24.150;2024-01-11T11:40:11;7.60;55.50
21518;DHT22;61765;45.794;24.150;2024-01-11T11:56:56;7.50;54.90
21518;DHT22;61765;45.794;24.150;2024-01-11T12:05:03;7.70;55.20
21518;DHT22;61765;45.794;24.150;2024-01-11T12:13:12;7.50;56.60
21518;DHT22;61765;45.794;24.150;2024-01-11T12:21:18;7.60;57.00
21518;DHT22;61765;45.794;24.150;2024-01-11T12:29:28;7.50;57.90
21518;DHT22;61765;45.794;24.150;2024-01-11T12:37:52;7.60;57.90
21518;DHT22;61765;45.794;24.150;2024-01-11T12:46:01;7.80;57.90
21518;DHT22;61765;45.794;24.150;2024-01-11T12:54:11;7.60;57.70
21518;DHT22;61765;45.794;24.150;2024-01-11T13:02:20;7.80;57.60
21518;DHT22;61765;45.794;24.150;2024-01-11T13:10:25;7.60;56.60
21518;DHT22;61765;45.794;24.150;2024-01-11T13:18:34;7.80;57.40
21518;DHT22;61765;45.794;24.150;2024-01-11T13:26:40;7.60;57.90
21518;DHT22;61765;45.794;24.150;2024-01-11T13:34:48;7.60;58.50
21518;DHT22;61765;45.794;24.150;2024-01-11T13:42:55;7.60;57.80
21518;DHT22;61765;45.794;24.150;2024-01-11T13:51:04;7.50;57.70
21518;DHT22;61765;45.794;24.150;2024-01-11T13:59:11;7.40;57.30
21518;DHT22;61765;45.794;24.150;2024-01-11T14:07:20;7.70;58.30
21518;DHT22;61765;45.794;24.150;2024-01-11T14:15:26;7.40;58.60
21518;DHT22;61765;45.794;24.150;2024-01-11T14:23:36;7.60;58.90
21518;DHT22;61765;45.794;24.150;2024-01-11T14:31:42;7.30;59.00
21518;DHT22;61765;45.794;24.150;2024-01-11T14:39:50;7.10;59.30
21518;DHT22;61765;45.794;24.150;2024-01-11T14:47:56;6.90;60.20
21518;DHT22;61765;45.794;24.150;2024-01-11T14:56:05;6.90;60.40
21518;DHT22;61765;45.794;24.150;2024-01-11T15:04:11;6.80;60.80
21518;DHT22;61765;45.794;24.150;2024-01-11T15:12:19;6.80;61.30
21518;DHT22;61765;45.794;24.150;2024-01-11T15:20:25;6.70;61.40
21518;DHT22;61765;45.794;24.150;2024-01-11T15:28:33;6.50;62.20
21518;DHT22;61765;45.794;24.150;2024-01-11T15:36:40;6.50;63.10
21518;DHT22;61765;45.794;24.150;2024-01-11T15:44:48;6.40;63.30
21518;DHT22;61765;45.794;24.150;2024-01-11T15:52:54;6.20;63.90
21518;DHT22;61765;45.794;24.150;2024-01-11T16:01:03;6.20;63.70
21518;DHT22;61765;45.794;24.150;2024-01-11T16:09:09;6.10;64.10
21518;DHT22;61765;45.794;24.150;2024-01-11T16:17:17;6.00;64.40
21518;DHT22;61765;45.794;24.150;2024-01-11T16:25:23;6.10;64.80
21518;DHT22;61765;45.794;24.150;2024-01-11T16:33:31;5.90;65.30
21518;DHT22;61765;45.794;24.150;2024-01-11T16:41:37;5.20;66.40
21518;DHT22;61765;45.794;24.150;2024-01-11T16:49:46;4.90;68.00
21518;DHT22;61765;45.794;24.150;2024-01-11T16:57:52;5.20;67.70
21518;DHT22;61765;45.794;24.150;2024-01-11T17:06:03;4.80;67.30
21518;DHT22;61765;45.794;24.150;2024-01-11T17:14:09;4.90;67.30
21518;DHT22;61765;45.794;24.150;2024-01-11T17:22:18;4.80;66.60
21518;DHT22;61765;45.794;24.150;2024-01-11T17:30:23;4.90;65.80
21518;DHT22;61765;45.794;24.150;2024-01-11T17:38:31;5.10;65.50
21518;DHT22;61765;45.794;24.150;2024-01-11T17:46:37;5.00;65.50
21518;DHT22;61765;45.794;24.150;2024-01-11T17:54:48;4.90;66.00
21518;DHT22;61765;45.794;24.150;2024-01-11T18:03:18;4.90;65.80
21518;DHT22;61765;45.794;24.150;2024-01-11T18:11:26;4.80;66.20
21518;DHT22;61765;45.794;24.150;2024-01-11T18:19:32;4.70;67.00
21518;DHT22;61765;45.794;24.150;2024-01-11T18:27:40;4.60;69.40
21518;DHT22;61765;45.794;24.150;2024-01-11T18:35:46;4.50;70.20
21518;DHT22;61765;45.794;24.150;2024-01-11T18:43:55;4.20;71.60
21518;DHT22;61765;45.794;24.150;2024-01-11T18:52:00;4.30;71.90
21518;DHT22;61765;45.794;24.150;2024-01-11T19:00:10;4.50;72.30
21518;DHT22;61765;45.794;24.150;2024-01-11T19:08:16;4.40;71.70
21518;DHT22;61765;45.794;24.150;2024-01-11T19:16:24;4.70;71.40
21518;DHT22;61765;45.794;24.150;2024-01-11T19:24:30;5.10;70.30
21518;DHT22;61765;45.794;24.150;2024-01-11T19:32:39;4.90;70.00
21518;DHT22;61765;45.794;24.150;2024-01-11T19:40:45;4.80;69.10
21518;DHT22;61765;45.794;24.150;2024-01-11T19:48:54;4.70;69.80
21518;DHT22;61765;45.794;24.150;2024-01-11T19:57:00;4.70;70.60
21518;DHT22;61765;45.794;24.150;2024-01-11T20:05:09;4.60;70.50
21518;DHT22;61765;45.794;24.150;2024-01-11T20:13:15;4.60;70.20
21518;DHT22;61765;45.794;24.150;2024-01-11T20:21:23;4.60;70.50
21518;DHT22;61765;45.794;24.150;2024-01-11T20:29:29;4.50;70.20
21518;DHT22;61765;45.794;24.150;2024-01-11T20:37:37;4.40;69.80
21518;DHT22;61765;45.794;24.150;2024-01-11T20:45:43;4.30;70.60
21518;DHT22;61765;45.794;24.150;2024-01-11T20:53:51;4.50;72.90
21518;DHT22;61765;45.794;24.150;2024-01-11T21:02:00;4.20;73.50
21518;DHT22;61765;45.794;24.150;2024-01-11T21:10:09;4.00;74.00
21518;DHT22;61765;45.794;24.150;2024-01-11T21:18:15;4.00;73.60
21518;DHT22;61765;45.794;24.150;2024-01-11T21:26:25;4.10;73.10
21518;DHT22;61765;45.794;24.150;2024-01-11T21:34:31;4.60;72.50
21518;DHT22;61765;45.794;24.150;2024-01-11T21:42:39;4.30;71.90
21518;DHT22;61765;45.794;24.150;2024-01-11T21:50:45;4.30;71.50
21518;DHT22;61765;45.794;24.150;2024-01-11T21:58:53;4.50;71.80
21518;DHT22;61765;45.794;24.150;2024-01-11T22:06:59;4.50;71.80
21518;DHT22;61765;45.794;24.150;2024-01-11T22:15:09;4.50;71.80
21518;DHT22;61765;45.794;24.150;2024-01-11T22:23:15;4.50;72.10
21518;DHT22;61765;45.794;24.150;2024-01-11T22:31:23;4.40;72.00
21518;DHT22;61765;45.794;24.150;2024-01-11T22:39:29;4.40;72.30
21518;DHT22;61765;45.794;24.150;2024-01-11T22:47:37;4.20;71.50
21518;DHT22;61765;45.794;24.150;2024-01-11T22:55:43;4.40;71.30
21518;DHT22;61765;45.794;24.150;2024-01-11T23:03:52;4.30;71.30
21518;DHT22;61765;45.794;24.150;2024-01-11T23:11:58;4.40;71.70
21518;DHT22;61765;45.794;24.150;2024-01-11T23:20:09;4.40;72.90
21518;DHT22;61765;45.794;24.150;2024-01-11T23:28:15;4.30;73.10
21518;DHT22;61765;45.794;24.150;2024-01-11T23:36:26;4.20;73.90
21518;DHT22;61765;45.794;24.150;2024-01-11T23:44:32;3.90;73.90
21518;DHT22;61765;45.794;24.150;2024-01-11T23:52:40;4.40;74.00
